Ekwok, AK (99580)

12:42 PM AKST on February 14, 2016 (GMT -0900)
New Stuyahok AP, New Stuyahok | | Change Station
CLOSE
Current Station
Airport
Location: New Stuyahok AP, New Stuyahok,
Elevation: 302 ft
Nearby Weather Stations

Elev 302 ft 59.45 °N, 157.33 °W | Updated 46 minutes ago

Light Snow
Light Snow
28 °F
Feels Like 19 °F
N
9
Wind Variable Wind from North

Today
High -- | Low -- °F
--% Chance of Precip.
Yesterday
High -- | Low -- °F
Precip. -- in
Pressure 29.30 in
Visibility 9.0 miles
Clouds Overcast 3400 ft
Windchill 19 °F
Dew Point 25 °F
Humidity 88%
Rainfall 0.00 in
Snow Depth Not available.
9:09 AM 6:20 PM
Waxing Crescent, 45% visible
METAR PANW 142056Z AUTO 36008KT 9SM -SN OVC034 M02/M04 A2925 RMK AO2 SNB27 SLP920 P0000 60000 T10221039 51012 FZRANO
Pressure 29.30 in
Visibility 9.0 miles
Clouds Overcast 3400 ft
Windchill 19 °F
Dew Point 25 °F
Humidity 88%
Rainfall 0.00 in
Snow Depth Not available.
9:09 AM 6:20 PM
Waxing Crescent, 45% visible
METAR PANW 142056Z AUTO 36008KT 9SM -SN OVC034 M02/M04 A2925 RMK AO2 SNB27 SLP920 P0000 60000 T10221039 51012 FZRANO

10-Day Weather Forecast

Almanac

Astronomy

Feb. 14, 2016 Rise Set
Actual Time
Civil Twilight
Nautical Twilight
Astronomical Twilight
Moon
Length of Visible Light
Length of Day
Tomorrow will be .
, % of the Moon is Illuminated

Today's Extremes

State Highs State Lows

Community

WunderPhotos

Upload Photos

1,892,890 photos uploaded!

WunderBlog® & News

Nearby

Air Quality

  Air Quality AQ Index Pollutant
Not available.

Snow Depth

Station Depth Elevation

Earthquake Activity

City Distance Mag. Time & Date
Minimum magnitude displayed is 2.5.

Coastal Water Temperatures

Place Temperature

Stations

Nearby Weather Stations

Station Location Temp. Windchill Dew Point Humidity Wind Precip. Elev Updated Type
                   

Watches & Warnings

There are currently no watches in effect.